Time;durP1;ratioP1;P1;durP2;ratioP2;P2;SDS_P1;SDS_P2;PMS_P1;PMS_P2;Temp;Humidity;BMP_temperature;BMP_pressure;BME280_temperature;BME280_humidity;BME280_pressure;Samples;Min_cycle;Max_cycle;Signal;HPM_P1;HPM_P2
2021/12/22 00:00:24;;;;;;;3.90;3.13;;;-3.50;99.90;-4.50;101065;;;;561342;251;24125;-75
2021/12/22 00:02:52;;;;;;;3.57;2.50;;;-3.50;99.90;-4.50;101061;;;;567682;253;24058;-73
2021/12/22 00:05:21;;;;;;;3.30;2.87;;;-3.50;99.90;-4.50;101062;;;;551445;255;24138;-74
2021/12/22 00:07:48;;;;;;;3.40;2.80;;;-3.50;99.90;-4.50;101071;;;;550733;256;24193;-74
2021/12/22 00:10:16;;;;;;;3.40;2.60;;;-3.50;99.90;-4.60;101070;;;;559012;253;24024;-75
2021/12/22 00:12:47;;;;;;;2.43;2.10;;;-3.50;99.90;-4.60;101076;;;;550985;256;24123;-76
2021/12/22 00:15:12;;;;;;;3.13;2.70;;;-3.50;99.90;-4.60;101084;;;;560545;252;24131;-76
2021/12/22 00:17:41;;;;;;;2.57;1.93;;;-3.60;99.90;-4.60;101071;;;;565352;250;23995;-73
2021/12/22 00:20:13;;;;;;;1.90;1.73;;;-3.60;99.90;-4.60;101071;;;;565375;250;23990;-75
2021/12/22 00:22:37;;;;;;;1.70;1.60;;;-3.60;99.90;-4.60;101074;;;;549048;256;35532;-75
2021/12/22 00:25:05;;;;;;;1.77;1.47;;;-3.60;99.90;-4.60;101079;;;;558426;253;24030;-76
2021/12/22 00:27:33;;;;;;;2.67;2.00;;;-3.60;99.90;-4.60;101074;;;;554255;256;24151;-75
2021/12/22 00:30:01;;;;;;;2.33;1.80;;;-3.60;99.90;-4.60;101077;;;;558315;253;24069;-76
2021/12/22 00:32:31;;;;;;;2.57;2.00;;;-3.60;99.90;-4.60;101074;;;;562258;250;24004;-73
2021/12/22 00:34:57;;;;;;;1.80;1.70;;;-3.60;99.90;-4.60;101080;;;;573662;245;24027;-74
2021/12/22 00:37:28;;;;;;;1.97;1.70;;;-3.60;99.90;-4.60;101087;;;;573811;248;24012;-74
2021/12/22 00:39:54;;;;;;;1.70;1.60;;;-3.60;99.90;-4.60;101089;;;;564941;248;24029;-74
2021/12/22 00:42:24;;;;;;;2.00;1.80;;;-3.60;99.90;-4.60;101093;;;;565134;250;24058;-74
2021/12/22 00:44:53;;;;;;;1.80;1.67;;;-3.50;99.90;-4.60;101095;;;;565072;249;24016;-73
2021/12/22 00:47:20;;;;;;;1.30;1.20;;;-3.50;99.90;-4.50;101101;;;;564900;250;24055;-74
2021/12/22 00:49:48;;;;;;;1.47;1.30;;;-3.40;99.90;-4.50;101103;;;;565369;250;24076;-73
2021/12/22 00:52:13;;;;;;;1.13;1.03;;;-3.40;99.90;-4.40;101107;;;;565413;250;24026;-74
2021/12/22 00:54:41;;;;;;;1.10;1.00;;;-3.30;99.90;-4.40;101105;;;;566515;249;25042;-74
2021/12/22 00:57:10;;;;;;;1.27;1.17;;;-3.30;99.90;-4.40;101102;;;;566761;249;23990;-75
2021/12/22 00:59:37;;;;;;;1.63;1.53;;;-3.30;99.90;-4.40;101101;;;;574953;245;24032;-74
2021/12/22 01:02:05;;;;;;;1.10;1.10;;;-3.40;99.90;-4.40;101102;;;;570529;248;24162;-73
2021/12/22 01:04:34;;;;;;;1.03;1.03;;;-3.20;99.90;-4.30;101113;;;;559730;256;24191;-74
2021/12/22 01:07:03;;;;;;;0.87;0.87;;;-3.20;99.90;-4.30;101109;;;;551300;256;24180;-74
2021/12/22 01:09:30;;;;;;;1.30;1.20;;;-3.20;99.90;-4.20;101116;;;;559128;253;24055;-73
2021/12/22 01:11:59;;;;;;;1.33;0.97;;;-3.00;99.90;-4.10;101113;;;;551104;256;24205;-74
2021/12/22 01:14:30;;;;;;;1.20;1.10;;;-3.00;99.90;-4.10;101109;;;;559024;253;24060;-73
2021/12/22 01:17:00;;;;;;;1.30;1.20;;;-2.90;99.90;-4.00;101112;;;;549065;256;24162;-75
2021/12/22 01:19:31;;;;;;;1.50;1.37;;;-2.80;99.90;-4.00;101114;;;;562285;251;24156;-74
2021/12/22 01:22:01;;;;;;;1.73;1.30;;;-2.80;99.90;-3.90;101113;;;;569608;249;24137;-74
2021/12/22 01:24:29;;;;;;;1.33;1.27;;;-2.80;99.90;-3.90;101111;;;;561554;245;24183;-75
2021/12/22 01:26:57;;;;;;;1.70;1.50;;;-2.80;99.90;-3.90;101107;;;;567347;252;24031;-75
2021/12/22 01:29:17;;;;;;;0.90;0.90;;;-2.70;99.90;-3.80;101113;;;;550260;256;24140;-75
2021/12/22 01:31:45;;;;;;;1.33;1.13;;;-2.70;99.90;-3.80;101105;;;;558327;253;24032;-75
2021/12/22 01:34:13;;;;;;;1.43;1.33;;;-2.60;99.90;-3.70;101106;;;;558803;256;24192;-74
2021/12/22 01:36:41;;;;;;;1.30;1.20;;;-2.50;99.90;-3.60;101119;;;;558417;253;24042;-74
2021/12/22 01:39:09;;;;;;;1.80;1.70;;;-2.40;99.90;-3.60;101121;;;;558812;253;24151;-75
2021/12/22 01:41:36;;;;;;;1.50;1.37;;;-2.40;99.90;-3.50;101125;;;;566990;253;24029;-74
2021/12/22 01:44:05;;;;;;;1.43;1.33;;;-2.30;99.90;-3.40;101127;;;;558917;254;24167;-74
2021/12/22 01:49:13;;;;;;;2.07;1.87;;;-2.20;99.90;-3.30;101128;;;;550826;256;24135;-74
2021/12/22 01:52:05;;;;;;;1.90;1.70;;;-2.10;99.90;-3.20;101117;;;;567072;253;24052;-75
2021/12/22 01:54:50;;;;;;;4.10;2.40;;;-2.10;99.90;-3.20;101115;;;;550864;255;24163;-74
2021/12/22 01:57:13;;;;;;;2.60;2.37;;;-2.00;99.90;-3.10;101109;;;;558291;253;24032;-73
2021/12/22 01:59:41;;;;;;;2.27;1.93;;;-2.00;99.90;-3.10;101111;;;;554169;256;24211;-73
2021/12/22 02:02:10;;;;;;;1.67;1.43;;;-2.00;99.90;-3.10;101119;;;;567143;249;24161;-72
2021/12/22 02:04:41;;;;;;;2.70;1.60;;;-2.00;99.90;-3.10;101112;;;;550686;256;24166;-73
2021/12/22 02:07:06;;;;;;;3.90;1.87;;;-2.00;99.90;-3.10;101104;;;;560242;252;24020;-74
2021/12/22 02:09:54;;;;;;;2.60;2.10;;;-1.90;99.90;-3.10;101106;;;;551767;256;24163;-74
2021/12/22 02:12:02;;;;;;;2.27;2.00;;;-1.90;99.90;-3.10;101103;;;;558016;252;24021;-74
2021/12/22 02:14:30;;;;;;;3.20;2.40;;;-1.90;99.90;-3.10;101110;;;;559595;253;24158;-73
2021/12/22 02:16:57;;;;;;;2.67;2.10;;;-2.00;99.90;-3.10;101110;;;;559114;253;24026;-74
2021/12/22 02:19:25;;;;;;;2.13;1.93;;;-2.00;99.90;-3.10;101105;;;;551295;253;24223;-75
2021/12/22 02:21:57;;;;;;;3.70;2.90;;;-2.00;99.90;-3.20;101110;;;;567599;253;24018;-75
2021/12/22 02:24:21;;;;;;;3.23;2.50;;;-2.10;99.90;-3.30;101106;;;;559034;251;24158;-75
2021/12/22 02:26:57;;;;;;;3.83;2.70;;;-2.20;99.90;-3.30;101099;;;;567328;248;24009;-75
2021/12/22 02:29:23;;;;;;;5.33;3.63;;;-2.20;99.90;-3.40;101095;;;;558919;255;24184;-75
2021/12/22 02:32:04;;;;;;;3.67;3.00;;;-2.30;99.90;-3.40;101095;;;;555496;252;24028;-75
2021/12/22 02:34:22;;;;;;;3.67;2.63;;;-2.40;99.90;-3.50;101088;;;;550954;256;24157;-75
2021/12/22 02:36:51;;;;;;;5.00;3.43;;;-2.40;99.90;-3.50;101090;;;;558646;253;24039;-74
2021/12/22 02:39:17;;;;;;;4.23;3.40;;;-2.50;99.90;-3.60;101091;;;;559091;256;24198;-74
2021/12/22 02:41:45;;;;;;;3.80;3.07;;;-2.50;99.90;-3.60;101106;;;;558453;252;25075;-74
2021/12/22 02:44:14;;;;;;;2.63;2.43;;;-2.50;99.90;-3.60;101107;;;;566487;253;24118;-74
2021/12/22 02:46:43;;;;;;;3.27;2.83;;;-2.50;99.90;-3.60;101096;;;;566821;252;24153;-71
2021/12/22 02:49:11;;;;;;;2.37;2.13;;;-2.50;99.90;-3.50;101100;;;;566880;251;24138;-74
2021/12/22 02:51:40;;;;;;;2.10;1.87;;;-2.50;99.90;-3.50;101102;;;;566846;252;24123;-73
2021/12/22 02:54:16;;;;;;;2.03;1.70;;;-2.40;99.90;-3.50;101102;;;;567198;252;24134;-72
2021/12/22 02:59:43;;;;;;;1.40;1.30;;;-2.40;99.90;-3.40;101101;;;;558923;253;24140;-73
2021/12/22 03:04:32;;;;;;;1.83;1.70;;;-2.30;99.90;-3.30;101105;;;;567007;252;24115;-73
2021/12/22 03:07:04;;;;;;;2.20;2.00;;;-2.10;99.90;-3.20;101109;;;;566914;249;24174;-74
2021/12/22 03:09:27;;;;;;;1.97;1.87;;;-2.20;99.90;-3.20;101112;;;;567139;252;24126;-74
2021/12/22 03:11:55;;;;;;;1.63;1.53;;;-2.00;99.90;-3.20;101103;;;;558269;253;24197;-74
2021/12/22 03:14:23;;;;;;;1.57;1.47;;;-2.10;99.90;-3.10;101109;;;;558366;253;24152;-74
2021/12/22 03:16:52;;;;;;;1.90;1.77;;;-2.00;99.90;-3.10;101113;;;;558910;252;24188;-74
2021/12/22 03:19:26;;;;;;;1.83;1.73;;;-2.00;99.90;-3.10;101113;;;;559670;251;24132;-74
2021/12/22 03:22:00;;;;;;;1.50;1.40;;;-2.00;99.90;-3.00;101107;;;;551700;256;24171;-74
2021/12/22 03:24:23;;;;;;;1.57;1.47;;;-1.90;99.90;-3.00;101117;;;;567777;248;24070;-73
2021/12/22 03:26:52;;;;;;;1.50;1.40;;;-1.90;99.90;-3.00;101112;;;;559541;255;24212;-73
2021/12/22 03:29:20;;;;;;;1.43;1.33;;;-1.90;99.90;-3.00;101110;;;;567613;250;24069;-73
2021/12/22 03:31:48;;;;;;;1.37;1.33;;;-1.90;99.90;-3.00;101106;;;;559278;253;24194;-73
2021/12/22 03:34:19;;;;;;;3.23;2.23;;;-1.90;99.90;-3.00;101107;;;;550401;256;24197;-72
2021/12/22 03:36:44;;;;;;;2.00;1.80;;;-1.90;99.90;-3.00;101109;;;;561077;251;24099;-72
2021/12/22 03:39:12;;;;;;;1.60;1.50;;;-1.90;99.90;-3.10;101118;;;;561310;251;24117;-72
2021/12/22 03:41:43;;;;;;;4.87;2.50;;;-2.00;99.90;-3.20;101107;;;;558993;253;24020;-72
2021/12/22 03:44:08;;;;;;;2.47;1.77;;;-2.10;99.90;-3.20;101119;;;;546737;256;35579;-72
2021/12/22 03:46:36;;;;;;;0.50;0.50;;;-2.20;99.90;-3.30;101123;;;;559112;252;24126;-72
2021/12/22 03:49:07;;;;;;;0.93;0.80;;;-2.30;99.90;-3.40;101113;;;;567218;253;24029;-74
2021/12/22 03:51:36;;;;;;;2.80;2.43;;;-2.40;99.90;-3.40;101111;;;;551075;256;24165;-72
2021/12/22 03:54:05;;;;;;;3.23;2.90;;;-2.50;99.90;-3.50;101118;;;;558312;253;24063;-73
2021/12/22 03:56:32;;;;;;;3.73;3.00;;;-2.50;99.90;-3.60;101112;;;;550848;256;24181;-73
2021/12/22 03:59:00;;;;;;;3.30;3.00;;;-2.50;99.90;-3.60;101114;;;;558263;253;24017;-73
2021/12/22 04:01:32;;;;;;;2.87;2.30;;;-2.60;99.90;-3.60;101114;;;;559232;255;24224;-73
2021/12/22 04:04:00;;;;;;;2.57;2.37;;;-2.60;99.90;-3.60;101117;;;;567199;251;24047;-74
2021/12/22 04:06:24;;;;;;;2.03;1.83;;;-2.60;99.90;-3.60;101110;;;;558941;254;25221;-74
2021/12/22 04:08:52;;;;;;;2.00;1.80;;;-2.60;99.90;-3.60;101113;;;;567303;253;24038;-75
2021/12/22 04:11:20;;;;;;;2.03;1.83;;;-2.60;99.90;-3.60;101111;;;;559093;253;24153;-74
2021/12/22 04:13:49;;;;;;;1.50;1.40;;;-2.50;99.90;-3.60;101118;;;;567173;253;24034;-74
2021/12/22 04:16:17;;;;;;;1.60;1.50;;;-2.60;99.90;-3.60;101117;;;;556680;256;24162;-74
2021/12/22 04:18:45;;;;;;;0.93;0.93;;;-2.60;99.90;-3.70;101123;;;;558670;253;24076;-74
2021/12/22 04:21:13;;;;;;;0.90;0.90;;;-2.60;99.90;-3.80;101120;;;;558893;255;24116;-74
2021/12/22 04:23:40;;;;;;;1.67;1.57;;;-2.70;99.90;-3.80;101121;;;;566986;253;24188;-75
2021/12/22 04:26:12;;;;;;;1.90;1.80;;;-2.80;99.90;-3.90;101126;;;;562215;250;23996;-74
2021/12/22 04:28:36;;;;;;;1.30;1.20;;;-2.90;99.90;-4.00;101117;;;;564827;249;24037;-75
2021/12/22 04:31:05;;;;;;;1.00;1.00;;;-2.90;99.90;-4.00;101120;;;;575421;247;24018;-74
2021/12/22 04:33:33;;;;;;;1.77;1.67;;;-3.00;99.90;-4.00;101125;;;;574658;247;24007;-75
2021/12/22 04:36:05;;;;;;;1.37;1.27;;;-2.90;99.90;-4.00;101120;;;;565923;250;24046;-74
2021/12/22 04:38:30;;;;;;;1.47;1.37;;;-2.90;99.90;-3.90;101124;;;;565653;250;24101;-75
2021/12/22 04:40:58;;;;;;;1.50;1.40;;;-2.90;99.90;-3.90;101126;;;;574346;248;24022;-74
2021/12/22 04:43:26;;;;;;;1.80;1.70;;;-2.80;99.90;-3.80;101130;;;;574310;248;24123;-75
2021/12/22 04:45:54;;;;;;;1.93;1.83;;;-2.80;99.90;-3.80;101120;;;;574239;248;24006;-75
2021/12/22 04:48:22;;;;;;;1.60;1.50;;;-2.70;99.90;-3.80;101125;;;;573902;248;24071;-74
2021/12/22 04:50:53;;;;;;;1.57;1.47;;;-2.70;99.90;-3.80;101126;;;;573959;247;24012;-75
2021/12/22 04:53:25;;;;;;;2.33;2.13;;;-2.70;99.90;-3.80;101130;;;;557622;252;24155;-74
2021/12/22 04:55:45;;;;;;;2.40;2.20;;;-2.70;99.90;-3.80;101115;;;;569182;250;25192;-74
2021/12/22 04:58:13;;;;;;;3.23;2.50;;;-2.70;99.90;-3.90;101127;;;;569073;247;24122;-74
2021/12/22 05:00:41;;;;;;;2.87;2.53;;;-2.80;99.90;-3.90;101132;;;;569184;247;24112;-74
2021/12/22 05:03:09;;;;;;;2.67;2.47;;;-2.90;99.90;-4.00;101143;;;;569145;252;24106;-73
2021/12/22 05:05:37;;;;;;;2.87;2.57;;;-2.90;99.90;-4.10;101126;;;;569267;252;24124;-74
2021/12/22 05:08:05;;;;;;;3.00;2.37;;;-3.00;99.90;-4.10;101133;;;;568973;248;24127;-74
2021/12/22 05:10:36;;;;;;;2.60;2.40;;;-3.10;99.90;-4.20;101131;;;;569237;247;24109;-74
2021/12/22 05:13:01;;;;;;;1.97;1.80;;;-3.20;99.90;-4.30;101126;;;;569034;250;24166;-74
2021/12/22 05:15:36;;;;;;;3.27;2.63;;;-3.20;99.90;-4.40;101127;;;;569152;252;24100;-74
2021/12/22 05:20:25;;;;;;;2.60;2.40;;;-3.40;99.90;-4.40;101124;;;;568855;247;24153;-74
2021/12/22 05:22:53;;;;;;;2.60;2.40;;;-3.40;99.90;-4.40;101115;;;;561111;250;23997;-74
2021/12/22 05:25:20;;;;;;;3.27;2.83;;;-3.40;99.90;-4.40;101121;;;;562353;250;23992;-74
2021/12/22 05:27:48;;;;;;;2.30;2.20;;;-3.40;99.90;-4.40;101131;;;;565194;250;24018;-74
2021/12/22 05:30:16;;;;;;;3.00;2.70;;;-3.40;99.90;-4.40;101137;;;;574143;248;24051;-74
2021/12/22 05:32:46;;;;;;;3.90;2.97;;;-3.40;99.90;-4.40;101126;;;;573804;248;24041;-73
2021/12/22 05:35:12;;;;;;;4.07;2.93;;;-3.40;99.90;-4.50;101141;;;;573650;246;24008;-74
2021/12/22 05:37:41;;;;;;;3.37;3.00;;;-3.40;99.90;-4.50;101134;;;;561064;252;24158;-73
2021/12/22 05:40:08;;;;;;;3.03;2.70;;;-3.40;99.90;-4.40;101145;;;;559130;252;24071;-74
2021/12/22 05:42:36;;;;;;;4.77;3.30;;;-3.40;99.90;-4.40;101140;;;;552102;256;24137;-73
2021/12/22 05:45:04;;;;;;;3.70;3.03;;;-3.30;99.90;-4.40;101154;;;;559685;252;24066;-74
2021/12/22 05:47:33;;;;;;;3.87;3.00;;;-3.20;99.90;-4.30;101137;;;;565187;251;24139;-73
2021/12/22 05:50:03;;;;;;;4.10;3.37;;;-3.30;99.90;-4.30;101141;;;;559400;253;24049;-73
2021/12/22 05:52:28;;;;;;;2.60;2.40;;;-3.20;99.90;-4.30;101141;;;;551092;256;24183;-73
2021/12/22 05:54:56;;;;;;;2.27;2.13;;;-3.20;99.90;-4.20;101141;;;;551271;256;24141;-74
2021/12/22 05:57:24;;;;;;;2.50;2.30;;;-3.10;99.90;-4.20;101146;;;;567541;253;24071;-74
2021/12/22 05:59:52;;;;;;;3.33;2.00;;;-3.10;99.90;-4.20;101145;;;;554558;255;35594;-73
2021/12/22 06:02:20;;;;;;;1.93;1.83;;;-3.10;99.90;-4.20;101153;;;;567400;253;24056;-73
2021/12/22 06:04:48;;;;;;;3.67;2.70;;;-3.10;99.90;-4.20;101146;;;;559070;255;24143;-73
2021/12/22 06:07:16;;;;;;;3.90;3.10;;;-3.10;99.90;-4.30;101147;;;;567429;248;24028;-73
2021/12/22 06:09:44;;;;;;;4.47;2.93;;;-3.10;99.90;-4.30;101160;;;;551427;256;24168;-73
2021/12/22 06:12:13;;;;;;;4.03;2.90;;;-3.20;99.90;-4.30;101156;;;;567747;253;24072;-73
2021/12/22 06:14:41;;;;;;;3.43;2.80;;;-3.20;99.90;-4.30;101158;;;;559516;253;24162;-73
2021/12/22 06:17:09;;;;;;;4.00;3.17;;;-3.30;99.90;-4.40;101160;;;;567463;253;24041;-74
2021/12/22 06:19:37;;;;;;;4.87;3.40;;;-3.30;99.90;-4.50;101164;;;;556898;253;24174;-73
2021/12/22 06:22:05;;;;;;;6.47;4.27;;;-3.40;99.90;-4.50;101167;;;;567063;250;24097;-73
2021/12/22 06:24:33;;;;;;;4.17;3.67;;;-3.40;99.90;-4.60;101172;;;;558976;255;25173;-73
2021/12/22 06:27:01;;;;;;;6.17;3.53;;;-3.50;99.90;-4.60;101167;;;;567060;253;24078;-73
2021/12/22 06:29:29;;;;;;;4.23;2.90;;;-3.50;99.90;-4.60;101176;;;;559259;253;24124;-72
2021/12/22 06:31:57;;;;;;;3.17;2.70;;;-3.60;99.90;-4.60;101174;;;;567147;253;24035;-73
2021/12/22 06:34:25;;;;;;;3.40;3.10;;;-3.60;99.90;-4.60;101175;;;;558810;253;24193;-74
2021/12/22 06:36:52;;;;;;;3.57;2.77;;;-3.50;99.90;-4.60;101178;;;;567162;253;24082;-74
2021/12/22 06:39:23;;;;;;;4.43;3.43;;;-3.50;99.90;-4.50;101187;;;;558918;255;24189;-74
2021/12/22 06:41:48;;;;;;;7.13;4.33;;;-3.40;99.90;-4.40;101180;;;;567079;251;24057;-74
2021/12/22 06:44:16;;;;;;;5.20;3.70;;;-3.30;99.90;-4.40;101182;;;;558909;253;24146;-75
2021/12/22 06:46:44;;;;;;;4.10;3.67;;;-3.30;99.90;-4.40;101181;;;;567095;253;24075;-73
2021/12/22 06:49:15;;;;;;;4.23;3.53;;;-3.20;99.90;-4.30;101191;;;;558868;253;24183;-72
2021/12/22 06:51:40;;;;;;;4.90;3.67;;;-3.20;99.90;-4.30;101176;;;;567090;251;24078;-73
2021/12/22 06:54:09;;;;;;;4.10;3.40;;;-3.10;99.90;-4.30;101193;;;;559498;253;24175;-74
2021/12/22 06:56:38;;;;;;;2.50;2.30;;;-3.20;99.90;-4.30;101194;;;;562773;254;24205;-73
2021/12/22 06:59:04;;;;;;;2.77;2.43;;;-3.10;99.90;-4.20;101202;;;;562984;250;24168;-73
2021/12/22 07:01:34;;;;;;;3.33;3.03;;;-3.10;99.90;-4.20;101197;;;;562513;249;24146;-74
2021/12/22 07:04:00;;;;;;;3.63;3.23;;;-3.00;99.90;-4.10;101198;;;;562315;254;24189;-73
2021/12/22 07:06:30;;;;;;;3.17;2.70;;;-3.00;99.90;-4.10;101193;;;;554259;250;24138;-74
2021/12/22 07:08:56;;;;;;;4.60;2.90;;;-3.00;99.90;-4.10;101189;;;;562373;254;24226;-73
2021/12/22 07:11:24;;;;;;;4.33;2.63;;;-2.90;99.90;-4.10;101192;;;;562506;255;24130;-73
2021/12/22 07:13:53;;;;;;;4.63;3.07;;;-2.90;99.90;-4.00;101197;;;;562485;255;24205;-74
2021/12/22 07:16:21;;;;;;;3.83;2.90;;;-2.80;99.90;-4.00;101193;;;;554304;254;24189;-74
2021/12/22 07:18:49;;;;;;;4.37;2.90;;;-2.90;99.90;-4.00;101205;;;;562450;255;24312;-74
2021/12/22 07:21:17;;;;;;;2.83;2.50;;;-2.80;99.90;-3.90;101193;;;;562118;255;24138;-74
2021/12/22 07:23:46;;;;;;;2.47;2.27;;;-2.70;99.90;-3.90;101201;;;;562197;253;24139;-75
2021/12/22 07:26:15;;;;;;;3.73;2.30;;;-2.70;99.90;-3.90;101199;;;;562085;250;24181;-74
2021/12/22 07:28:45;;;;;;;2.20;2.10;;;-2.70;99.90;-3.90;101207;;;;553807;255;24201;-73
2021/12/22 07:31:14;;;;;;;4.00;3.20;;;-2.70;99.90;-3.90;101205;;;;553535;255;24147;-73
2021/12/22 07:33:48;;;;;;;2.77;2.40;;;-2.70;99.90;-3.90;101207;;;;559298;255;24166;-74
2021/12/22 07:36:15;;;;;;;3.40;2.93;;;-2.70;99.90;-3.90;101213;;;;553513;255;24164;-74
2021/12/22 07:38:43;;;;;;;4.57;3.43;;;-2.80;99.90;-3.90;101215;;;;561786;255;24168;-72
2021/12/22 07:41:11;;;;;;;3.03;2.73;;;-2.80;99.90;-3.90;101212;;;;561554;250;24189;-72
2021/12/22 07:43:39;;;;;;;4.17;3.57;;;-2.80;99.90;-3.90;101212;;;;561834;255;24133;-72
2021/12/22 07:46:08;;;;;;;4.53;3.37;;;-2.80;99.90;-3.90;101215;;;;561947;255;24160;-73
2021/12/22 07:48:35;;;;;;;5.30;3.90;;;-2.80;99.90;-3.90;101208;;;;561889;250;24182;-73
2021/12/22 07:51:03;;;;;;;4.63;3.20;;;-2.80;99.90;-3.80;101213;;;;559272;253;24182;-73
2021/12/22 07:53:34;;;;;;;4.27;3.73;;;-2.70;99.90;-3.80;101213;;;;553767;255;24219;-75
2021/12/22 07:55:59;;;;;;;4.27;3.37;;;-2.70;99.90;-3.70;101219;;;;553338;255;24144;-76
2021/12/22 07:58:27;;;;;;;5.50;3.60;;;-2.60;99.90;-3.50;101212;;;;561998;255;24146;-74
2021/12/22 08:00:55;;;;;;;5.57;3.70;;;-2.40;99.90;-3.40;101212;;;;553685;255;24178;-73
2021/12/22 08:03:22;;;;;;;6.03;4.10;;;-2.30;99.90;-3.30;101213;;;;554254;254;24180;-74
2021/12/22 08:05:50;;;;;;;3.17;2.87;;;-2.10;99.90;-3.20;101212;;;;554955;254;24142;-73
2021/12/22 08:08:18;;;;;;;4.70;4.20;;;-2.10;99.90;-3.10;101217;;;;562729;250;24196;-74
2021/12/22 08:10:46;;;;;;;3.10;2.57;;;-2.00;99.90;-3.10;101213;;;;562681;254;24145;-74
2021/12/22 08:13:18;;;;;;;4.30;3.47;;;-1.90;99.90;-3.00;101212;;;;554266;254;24193;-74
2021/12/22 08:15:44;;;;;;;4.53;3.97;;;-1.80;99.90;-3.00;101225;;;;562451;252;24189;-74
2021/12/22 08:18:12;;;;;;;9.50;5.43;;;-1.80;99.90;-3.00;101229;;;;554167;254;24267;-74
2021/12/22 08:20:40;;;;;;;6.73;4.77;;;-1.80;99.90;-2.90;101224;;;;554045;254;27397;-74
2021/12/22 08:23:09;;;;;;;9.87;5.23;;;-1.80;99.90;-2.90;101221;;;;562060;255;24141;-74
2021/12/22 08:25:39;;;;;;;7.13;5.00;;;-1.70;99.90;-2.80;101221;;;;562099;250;24181;-76
2021/12/22 08:28:04;;;;;;;7.63;5.77;;;-1.60;99.90;-2.70;101236;;;;561929;255;24166;-74
2021/12/22 08:30:33;;;;;;;6.87;5.00;;;-1.50;99.90;-2.70;101231;;;;553884;254;24143;-73
2021/12/22 08:33:09;;;;;;;7.20;5.40;;;-1.40;99.90;-2.60;101224;;;;562548;250;24129;-74
2021/12/22 08:35:30;;;;;;;5.50;4.03;;;-1.40;99.90;-2.50;101226;;;;562121;255;24135;-74
2021/12/22 08:40:43;;;;;;;5.67;4.13;;;-1.30;99.90;-2.40;101235;;;;561869;255;24160;-75
2021/12/22 08:43:11;;;;;;;3.13;2.83;;;-1.20;99.90;-2.40;101231;;;;561968;255;24149;-72
2021/12/22 08:45:39;;;;;;;6.63;4.67;;;-1.20;99.90;-2.30;101234;;;;561895;255;24201;-73
2021/12/22 08:48:07;;;;;;;6.97;4.23;;;-1.10;99.90;-2.20;101233;;;;553600;255;24179;-73
2021/12/22 08:50:35;;;;;;;6.07;3.40;;;-1.10;99.90;-2.20;101232;;;;561933;255;24121;-74
2021/12/22 08:53:03;;;;;;;7.17;4.80;;;-1.00;99.90;-2.10;101231;;;;561860;250;24171;-75
2021/12/22 08:55:31;;;;;;;5.80;4.23;;;-1.00;99.90;-2.10;101226;;;;561995;255;24214;-73
2021/12/22 08:57:59;;;;;;;2.80;2.33;;;-0.90;99.90;-2.00;101237;;;;561886;255;24145;-71
2021/12/22 09:00:28;;;;;;;5.57;3.00;;;-0.80;99.90;-2.00;101229;;;;561713;255;24126;-73
2021/12/22 09:02:56;;;;;;;5.73;3.87;;;-0.80;99.90;-1.90;101236;;;;561886;255;24146;-75
2021/12/22 09:05:24;;;;;;;7.07;4.27;;;-0.80;99.90;-1.90;101236;;;;561848;255;24142;-74
2021/12/22 09:07:52;;;;;;;6.13;4.13;;;-0.80;99.90;-1.90;101226;;;;566118;247;24100;-74
2021/12/22 09:10:20;;;;;;;5.00;3.70;;;-0.80;99.90;-1.80;101231;;;;572169;247;24105;-74
2021/12/22 09:12:47;;;;;;;3.30;3.00;;;-0.70;99.90;-1.80;101236;;;;581335;247;24093;-74
2021/12/22 09:15:17;;;;;;;3.10;2.57;;;-0.60;99.90;-1.70;101240;;;;571200;250;24076;-74
2021/12/22 09:17:43;;;;;;;2.27;1.63;;;-0.60;99.90;-1.60;101228;;;;571618;251;24149;-74
2021/12/22 09:20:12;;;;;;;5.70;2.43;;;-0.50;99.90;-1.60;101236;;;;563100;251;24129;-74
2021/12/22 09:22:39;;;;;;;1.67;1.47;;;-0.40;99.90;-1.50;101234;;;;562871;251;24152;-74
2021/12/22 09:25:07;;;;;;;2.80;2.30;;;-0.40;99.90;-1.50;101238;;;;562380;251;25128;-74
2021/12/22 09:27:35;;;;;;;2.53;2.23;;;-0.30;99.90;-1.40;101242;;;;562039;251;24113;-75
2021/12/22 09:30:03;;;;;;;1.30;0.87;;;-0.30;99.90;-1.40;101229;;;;570500;251;24137;-75
2021/12/22 09:32:31;;;;;;;2.33;1.40;;;-0.20;99.90;-1.30;101240;;;;562179;251;24098;-75
2021/12/22 09:34:59;;;;;;;2.33;0.80;;;-0.20;99.90;-1.30;101225;;;;570267;251;24135;-73
2021/12/22 09:37:30;;;;;;;3.17;1.30;;;-0.10;99.90;-1.20;101225;;;;561939;251;24156;-73
2021/12/22 09:39:55;;;;;;;0.97;0.60;;;0.10;99.90;-1.10;101217;;;;561724;251;24141;-73
2021/12/22 09:42:23;;;;;;;3.30;1.67;;;0.10;99.90;-1.00;101218;;;;561822;251;24118;-73
2021/12/22 09:44:52;;;;;;;0.80;0.80;;;0.20;99.90;-1.00;101216;;;;561901;251;24101;-73
2021/12/22 09:47:27;;;;;;;1.47;1.00;;;0.20;99.90;-0.90;101227;;;;561639;251;24127;-74
2021/12/22 09:50:06;;;;;;;2.63;1.47;;;0.30;99.90;-0.80;101231;;;;561365;251;24112;-76
2021/12/22 09:52:27;;;;;;;3.67;1.50;;;0.40;99.90;-0.80;101231;;;;560247;251;24085;-73
2021/12/22 09:54:53;;;;;;;3.00;1.40;;;0.40;99.90;-0.80;101224;;;;561590;251;24102;-74
2021/12/22 09:57:21;;;;;;;5.03;2.20;;;0.40;99.90;-0.80;101230;;;;561522;251;24100;-73
2021/12/22 09:59:48;;;;;;;7.57;4.27;;;0.40;99.90;-0.80;101227;;;;570160;251;24093;-73
2021/12/22 10:02:17;;;;;;;4.93;1.87;;;0.40;99.90;-0.80;101227;;;;570023;248;24108;-73
2021/12/22 10:04:45;;;;;;;3.77;2.40;;;0.40;99.90;-0.80;101234;;;;561470;251;24105;-73
2021/12/22 10:07:20;;;;;;;6.17;4.73;;;0.40;99.90;-0.80;101230;;;;561647;251;24118;-74
2021/12/22 10:09:44;;;;;;;4.90;3.20;;;0.40;99.90;-0.80;101233;;;;561376;251;24171;-74
2021/12/22 10:12:20;;;;;;;5.77;2.73;;;0.40;99.90;-0.70;101233;;;;557086;251;24149;-74
2021/12/22 10:14:58;;;;;;;5.93;1.77;;;0.40;99.90;-0.70;101235;;;;561672;251;24143;-73
2021/12/22 10:17:40;;;;;;;2.80;2.07;;;0.40;99.90;-0.70;101231;;;;561946;251;24130;-74
2021/12/22 10:20:08;;;;;;;4.53;1.97;;;0.40;99.90;-0.70;101235;;;;570227;248;24146;-74
2021/12/22 10:22:36;;;;;;;4.57;1.53;;;0.40;99.90;-0.80;101227;;;;561836;251;24095;-74
2021/12/22 10:25:19;;;;;;;6.60;2.43;;;0.40;99.90;-0.70;101216;;;;570297;251;24133;-76
2021/12/22 10:27:44;;;;;;;9.25;5.62;;;0.40;99.90;-0.80;101222;;;;557620;251;35378;-76
2021/12/22 10:30:36;;;;;;;2.13;1.97;;;0.40;99.90;-0.80;101213;;;;570985;248;24105;-75
2021/12/22 10:33:04;;;;;;;2.87;2.23;;;0.40;99.90;-0.70;101224;;;;562271;251;24136;-75
2021/12/22 10:35:33;;;;;;;2.77;1.43;;;0.50;99.90;-0.70;101222;;;;570819;249;24121;-76
2021/12/22 10:38:04;;;;;;;3.70;1.83;;;0.40;99.90;-0.80;101216;;;;562119;251;24092;-76
2021/12/22 10:40:31;;;;;;;2.67;1.67;;;0.40;99.90;-0.80;101208;;;;570109;248;24107;-75
2021/12/22 10:43:02;;;;;;;1.93;1.63;;;0.40;99.90;-0.80;101213;;;;549379;257;24113;-75
2021/12/22 10:45:28;;;;;;;5.00;2.10;;;0.30;99.90;-0.80;101211;;;;558557;252;24124;-76
2021/12/22 10:50:42;;;;;;;7.53;3.73;;;0.30;99.90;-0.90;101200;;;;561858;251;24092;-78
2021/12/22 10:53:10;;;;;;;10.97;5.93;;;0.20;99.90;-1.00;101205;;;;561931;251;24114;-76
2021/12/22 10:55:44;;;;;;;12.80;6.17;;;0.20;99.90;-1.00;101203;;;;548606;257;24128;-73
2021/12/22 10:58:23;;;;;;;8.00;4.23;;;0.10;99.90;-1.00;101205;;;;561996;251;24125;-74
2021/12/22 11:01:12;;;;;;;9.30;5.17;;;0.10;99.90;-1.00;101204;;;;570239;248;24147;-74
2021/12/22 11:03:49;;;;;;;13.80;7.57;;;0.10;99.90;-1.00;101202;;;;570206;251;24119;-75
2021/12/22 11:06:21;;;;;;;12.43;6.93;;;0.00;99.90;-1.10;101195;;;;562193;251;24100;-75
2021/12/22 11:08:58;;;;;;;8.37;5.23;;;0.00;99.90;-1.10;101186;;;;561781;251;24087;-75
2021/12/22 11:11:36;;;;;;;7.33;4.47;;;-0.10;99.90;-1.10;101194;;;;560377;252;24068;-77
2021/12/22 11:14:13;;;;;;;4.13;2.70;;;-0.10;99.90;-1.20;101193;;;;560366;252;24083;-74
2021/12/22 11:16:59;;;;;;;7.20;3.37;;;-0.10;99.90;-1.20;101192;;;;560114;252;24066;-74
2021/12/22 11:19:30;;;;;;;8.73;5.60;;;-0.20;99.90;-1.20;101189;;;;556846;251;24081;-75
2021/12/22 11:22:10;;;;;;;11.07;9.03;;;-0.20;99.90;-1.20;101177;;;;569227;249;24070;-74
2021/12/22 11:24:35;;;;;;;13.23;9.43;;;-0.20;99.90;-1.20;101185;;;;560133;252;24104;-75
2021/12/22 11:27:04;;;;;;;10.73;8.30;;;-0.10;99.90;-1.20;101187;;;;559960;252;24091;-75
2021/12/22 11:29:32;;;;;;;12.53;8.40;;;-0.10;99.90;-1.20;101177;;;;559831;252;25124;-76
2021/12/22 11:32:00;;;;;;;8.67;6.30;;;-0.10;99.90;-1.20;101180;;;;560063;252;24061;-74